sensor_id;sensor_type;location;lat;lon;timestamp;P1;durP1;ratioP1;P2;durP2;ratioP2
39218;SDS011;24934;52.752;6.964;2023-02-28T00:01:25;16.50;;;10.43;;
39218;SDS011;24934;52.752;6.964;2023-02-28T00:03:51;12.60;;;10.30;;
39218;SDS011;24934;52.752;6.964;2023-02-28T00:06:16;16.47;;;10.87;;
39218;SDS011;24934;52.752;6.964;2023-02-28T00:08:45;15.87;;;10.80;;
39218;SDS011;24934;52.752;6.964;2023-02-28T00:11:12;15.93;;;10.30;;
39218;SDS011;24934;52.752;6.964;2023-02-28T00:13:40;12.80;;;10.37;;
39218;SDS011;24934;52.752;6.964;2023-02-28T00:16:09;15.40;;;10.40;;
39218;SDS011;24934;52.752;6.964;2023-02-28T00:18:37;12.53;;;10.03;;
39218;SDS011;24934;52.752;6.964;2023-02-28T00:21:06;13.60;;;10.50;;
39218;SDS011;24934;52.752;6.964;2023-02-28T00:23:32;14.10;;;10.67;;
39218;SDS011;24934;52.752;6.964;2023-02-28T00:25:59;16.60;;;11.57;;
39218;SDS011;24934;52.752;6.964;2023-02-28T00:28:24;12.90;;;11.17;;
39218;SDS011;24934;52.752;6.964;2023-02-28T00:30:50;18.07;;;11.60;;
39218;SDS011;24934;52.752;6.964;2023-02-28T00:33:16;16.50;;;11.23;;
39218;SDS011;24934;52.752;6.964;2023-02-28T00:35:42;14.03;;;11.50;;
39218;SDS011;24934;52.752;6.964;2023-02-28T00:38:11;14.83;;;11.10;;
39218;SDS011;24934;52.752;6.964;2023-02-28T00:40:37;16.83;;;11.33;;
39218;SDS011;24934;52.752;6.964;2023-02-28T00:43:03;15.13;;;12.20;;
39218;SDS011;24934;52.752;6.964;2023-02-28T00:45:29;13.17;;;10.60;;
39218;SDS011;24934;52.752;6.964;2023-02-28T00:47:54;13.73;;;11.00;;
39218;SDS011;24934;52.752;6.964;2023-02-28T00:50:20;15.10;;;10.50;;
39218;SDS011;24934;52.752;6.964;2023-02-28T00:52:46;14.17;;;11.10;;
39218;SDS011;24934;52.752;6.964;2023-02-28T00:55:12;15.43;;;11.70;;
39218;SDS011;24934;52.752;6.964;2023-02-28T00:57:38;15.77;;;11.97;;
39218;SDS011;24934;52.752;6.964;2023-02-28T01:00:05;14.80;;;11.13;;
39218;SDS011;24934;52.752;6.964;2023-02-28T01:02:31;21.70;;;11.77;;
39218;SDS011;24934;52.752;6.964;2023-02-28T01:04:56;15.93;;;11.70;;
39218;SDS011;24934;52.752;6.964;2023-02-28T01:07:23;20.20;;;12.20;;
39218;SDS011;24934;52.752;6.964;2023-02-28T01:09:48;15.60;;;12.00;;
39218;SDS011;24934;52.752;6.964;2023-02-28T01:12:14;20.83;;;11.97;;
39218;SDS011;24934;52.752;6.964;2023-02-28T01:14:41;16.07;;;12.17;;
39218;SDS011;24934;52.752;6.964;2023-02-28T01:17:06;16.30;;;11.93;;
39218;SDS011;24934;52.752;6.964;2023-02-28T01:19:33;16.33;;;12.20;;
39218;SDS011;24934;52.752;6.964;2023-02-28T01:22:05;12.80;;;11.40;;
39218;SDS011;24934;52.752;6.964;2023-02-28T01:24:31;13.73;;;11.53;;
39218;SDS011;24934;52.752;6.964;2023-02-28T01:26:57;17.57;;;11.47;;
39218;SDS011;24934;52.752;6.964;2023-02-28T01:29:25;14.90;;;11.00;;
39218;SDS011;24934;52.752;6.964;2023-02-28T01:31:51;13.10;;;10.93;;
39218;SDS011;24934;52.752;6.964;2023-02-28T01:34:16;15.97;;;11.63;;
39218;SDS011;24934;52.752;6.964;2023-02-28T01:36:45;18.57;;;11.50;;
39218;SDS011;24934;52.752;6.964;2023-02-28T01:39:11;13.40;;;11.37;;
39218;SDS011;24934;52.752;6.964;2023-02-28T01:41:37;17.73;;;12.23;;
39218;SDS011;24934;52.752;6.964;2023-02-28T01:44:04;21.27;;;12.07;;
39218;SDS011;24934;52.752;6.964;2023-02-28T01:46:33;14.13;;;12.10;;
39218;SDS011;24934;52.752;6.964;2023-02-28T01:49:02;13.30;;;11.20;;
39218;SDS011;24934;52.752;6.964;2023-02-28T01:51:35;16.77;;;11.70;;
39218;SDS011;24934;52.752;6.964;2023-02-28T01:54:09;17.30;;;11.60;;
39218;SDS011;24934;52.752;6.964;2023-02-28T01:56:38;14.27;;;12.07;;
39218;SDS011;24934;52.752;6.964;2023-02-28T01:59:07;17.03;;;11.93;;
39218;SDS011;24934;52.752;6.964;2023-02-28T02:01:33;14.47;;;11.87;;
39218;SDS011;24934;52.752;6.964;2023-02-28T02:04:01;19.27;;;11.87;;
39218;SDS011;24934;52.752;6.964;2023-02-28T02:06:29;16.00;;;12.07;;
39218;SDS011;24934;52.752;6.964;2023-02-28T02:08:59;16.30;;;11.90;;
39218;SDS011;24934;52.752;6.964;2023-02-28T02:11:25;20.13;;;12.13;;
39218;SDS011;24934;52.752;6.964;2023-02-28T02:14:10;18.40;;;12.37;;
39218;SDS011;24934;52.752;6.964;2023-02-28T02:17:26;17.57;;;12.60;;
39218;SDS011;24934;52.752;6.964;2023-02-28T02:25:53;15.57;;;12.23;;
39218;SDS011;24934;52.752;6.964;2023-02-28T02:28:40;15.07;;;12.40;;
39218;SDS011;24934;52.752;6.964;2023-02-28T02:31:26;16.47;;;12.70;;
39218;SDS011;24934;52.752;6.964;2023-02-28T02:40:09;17.00;;;12.63;;
39218;SDS011;24934;52.752;6.964;2023-02-28T02:42:44;20.87;;;13.43;;
39218;SDS011;24934;52.752;6.964;2023-02-28T02:48:01;20.57;;;14.83;;
39218;SDS011;24934;52.752;6.964;2023-02-28T02:50:31;18.30;;;14.47;;
39218;SDS011;24934;52.752;6.964;2023-02-28T02:53:02;17.83;;;13.70;;
39218;SDS011;24934;52.752;6.964;2023-02-28T02:55:29;18.37;;;14.13;;
39218;SDS011;24934;52.752;6.964;2023-02-28T02:57:58;19.53;;;14.60;;
39218;SDS011;24934;52.752;6.964;2023-02-28T03:00:33;21.03;;;14.13;;
39218;SDS011;24934;52.752;6.964;2023-02-28T03:03:02;20.07;;;14.20;;
39218;SDS011;24934;52.752;6.964;2023-02-28T03:05:30;17.40;;;13.27;;
39218;SDS011;24934;52.752;6.964;2023-02-28T03:08:03;18.70;;;14.37;;
39218;SDS011;24934;52.752;6.964;2023-02-28T03:10:39;18.80;;;13.70;;
39218;SDS011;24934;52.752;6.964;2023-02-28T03:13:21;18.90;;;13.67;;
39218;SDS011;24934;52.752;6.964;2023-02-28T03:16:08;17.63;;;13.83;;
39218;SDS011;24934;52.752;6.964;2023-02-28T03:21:29;20.47;;;14.30;;
39218;SDS011;24934;52.752;6.964;2023-02-28T03:24:08;20.70;;;13.50;;
39218;SDS011;24934;52.752;6.964;2023-02-28T03:27:10;21.53;;;14.63;;
39218;SDS011;24934;52.752;6.964;2023-02-28T03:29:50;19.10;;;14.13;;
39218;SDS011;24934;52.752;6.964;2023-02-28T03:35:23;17.20;;;13.60;;
39218;SDS011;24934;52.752;6.964;2023-02-28T03:38:07;18.53;;;13.07;;
39218;SDS011;24934;52.752;6.964;2023-02-28T03:40:46;17.50;;;13.43;;
39218;SDS011;24934;52.752;6.964;2023-02-28T03:43:25;19.23;;;13.70;;
39218;SDS011;24934;52.752;6.964;2023-02-28T03:45:54;17.80;;;13.53;;
39218;SDS011;24934;52.752;6.964;2023-02-28T03:50:50;19.50;;;13.73;;
39218;SDS011;24934;52.752;6.964;2023-02-28T03:53:21;18.97;;;13.33;;
39218;SDS011;24934;52.752;6.964;2023-02-28T03:55:49;17.43;;;13.80;;
39218;SDS011;24934;52.752;6.964;2023-02-28T03:58:29;15.77;;;13.70;;
39218;SDS011;24934;52.752;6.964;2023-02-28T04:01:23;19.13;;;13.93;;
39218;SDS011;24934;52.752;6.964;2023-02-28T04:03:55;18.37;;;13.47;;
39218;SDS011;24934;52.752;6.964;2023-02-28T04:06:22;21.13;;;14.27;;
39218;SDS011;24934;52.752;6.964;2023-02-28T04:08:49;17.07;;;13.47;;
39218;SDS011;24934;52.752;6.964;2023-02-28T04:11:34;21.43;;;13.83;;
39218;SDS011;24934;52.752;6.964;2023-02-28T04:14:07;18.07;;;13.97;;
39218;SDS011;24934;52.752;6.964;2023-02-28T04:16:35;20.00;;;13.63;;
39218;SDS011;24934;52.752;6.964;2023-02-28T04:19:03;16.30;;;13.60;;
39218;SDS011;24934;52.752;6.964;2023-02-28T04:21:34;18.53;;;13.63;;
39218;SDS011;24934;52.752;6.964;2023-02-28T04:24:02;21.60;;;13.33;;
39218;SDS011;24934;52.752;6.964;2023-02-28T04:26:31;18.33;;;13.80;;
39218;SDS011;24934;52.752;6.964;2023-02-28T04:28:58;17.73;;;13.33;;
39218;SDS011;24934;52.752;6.964;2023-02-28T04:31:24;17.80;;;12.80;;
39218;SDS011;24934;52.752;6.964;2023-02-28T04:33:50;17.07;;;13.23;;
39218;SDS011;24934;52.752;6.964;2023-02-28T04:36:16;15.70;;;12.80;;
39218;SDS011;24934;52.752;6.964;2023-02-28T04:38:45;19.83;;;13.40;;
39218;SDS011;24934;52.752;6.964;2023-02-28T04:41:13;18.43;;;12.40;;
39218;SDS011;24934;52.752;6.964;2023-02-28T04:43:39;15.90;;;13.50;;
39218;SDS011;24934;52.752;6.964;2023-02-28T04:46:05;19.47;;;12.53;;
39218;SDS011;24934;52.752;6.964;2023-02-28T04:48:32;14.97;;;12.80;;
39218;SDS011;24934;52.752;6.964;2023-02-28T04:51:06;17.57;;;13.47;;
39218;SDS011;24934;52.752;6.964;2023-02-28T04:53:33;16.13;;;13.10;;
39218;SDS011;24934;52.752;6.964;2023-02-28T04:56:04;15.17;;;12.57;;
39218;SDS011;24934;52.752;6.964;2023-02-28T04:58:31;16.60;;;13.87;;
39218;SDS011;24934;52.752;6.964;2023-02-28T05:01:31;16.70;;;13.60;;
39218;SDS011;24934;52.752;6.964;2023-02-28T05:03:49;16.67;;;13.20;;
39218;SDS011;24934;52.752;6.964;2023-02-28T05:06:18;16.20;;;13.27;;
39218;SDS011;24934;52.752;6.964;2023-02-28T05:08:45;17.17;;;12.93;;
39218;SDS011;24934;52.752;6.964;2023-02-28T05:13:44;21.53;;;14.33;;
39218;SDS011;24934;52.752;6.964;2023-02-28T05:16:10;17.27;;;13.53;;
39218;SDS011;24934;52.752;6.964;2023-02-28T05:18:36;20.37;;;14.03;;
39218;SDS011;24934;52.752;6.964;2023-02-28T05:21:02;20.63;;;14.73;;
39218;SDS011;24934;52.752;6.964;2023-02-28T05:23:28;16.07;;;14.37;;
39218;SDS011;24934;52.752;6.964;2023-02-28T05:25:54;18.00;;;14.17;;
39218;SDS011;24934;52.752;6.964;2023-02-28T05:28:23;15.87;;;13.17;;
39218;SDS011;24934;52.752;6.964;2023-02-28T05:30:51;17.00;;;13.70;;
39218;SDS011;24934;52.752;6.964;2023-02-28T05:33:17;14.60;;;12.63;;
39218;SDS011;24934;52.752;6.964;2023-02-28T05:35:42;19.60;;;13.73;;
39218;SDS011;24934;52.752;6.964;2023-02-28T05:38:08;16.13;;;13.33;;
39218;SDS011;24934;52.752;6.964;2023-02-28T05:40:34;16.37;;;12.23;;
39218;SDS011;24934;52.752;6.964;2023-02-28T05:43:00;13.57;;;11.10;;
39218;SDS011;24934;52.752;6.964;2023-02-28T05:45:25;14.97;;;12.37;;
39218;SDS011;24934;52.752;6.964;2023-02-28T05:47:54;15.90;;;11.83;;
39218;SDS011;24934;52.752;6.964;2023-02-28T05:50:20;14.00;;;11.57;;
39218;SDS011;24934;52.752;6.964;2023-02-28T05:52:52;13.23;;;11.83;;
39218;SDS011;24934;52.752;6.964;2023-02-28T05:55:20;16.10;;;12.33;;
39218;SDS011;24934;52.752;6.964;2023-02-28T05:57:45;18.73;;;12.73;;
39218;SDS011;24934;52.752;6.964;2023-02-28T06:00:11;14.93;;;13.33;;
39218;SDS011;24934;52.752;6.964;2023-02-28T06:02:40;17.93;;;13.20;;
39218;SDS011;24934;52.752;6.964;2023-02-28T06:05:07;15.43;;;12.10;;
39218;SDS011;24934;52.752;6.964;2023-02-28T06:07:42;15.33;;;12.13;;
39218;SDS011;24934;52.752;6.964;2023-02-28T06:10:09;15.97;;;12.70;;
39218;SDS011;24934;52.752;6.964;2023-02-28T06:12:36;15.13;;;13.20;;
39218;SDS011;24934;52.752;6.964;2023-02-28T06:15:02;14.17;;;12.70;;
39218;SDS011;24934;52.752;6.964;2023-02-28T06:17:28;16.47;;;12.97;;
39218;SDS011;24934;52.752;6.964;2023-02-28T06:19:54;14.83;;;12.87;;
39218;SDS011;24934;52.752;6.964;2023-02-28T06:22:20;16.33;;;13.40;;
39218;SDS011;24934;52.752;6.964;2023-02-28T06:24:45;14.40;;;12.90;;
39218;SDS011;24934;52.752;6.964;2023-02-28T06:27:11;18.67;;;13.47;;
39218;SDS011;24934;52.752;6.964;2023-02-28T06:29:36;14.97;;;13.37;;
39218;SDS011;24934;52.752;6.964;2023-02-28T06:32:04;16.93;;;13.70;;
39218;SDS011;24934;52.752;6.964;2023-02-28T06:34:31;18.03;;;14.47;;
39218;SDS011;24934;52.752;6.964;2023-02-28T06:36:58;16.33;;;14.00;;
39218;SDS011;24934;52.752;6.964;2023-02-28T06:39:27;17.50;;;14.00;;
39218;SDS011;24934;52.752;6.964;2023-02-28T06:41:53;15.50;;;13.50;;
39218;SDS011;24934;52.752;6.964;2023-02-28T06:44:19;16.50;;;13.53;;
39218;SDS011;24934;52.752;6.964;2023-02-28T06:46:44;16.20;;;13.63;;
39218;SDS011;24934;52.752;6.964;2023-02-28T06:49:11;16.37;;;13.70;;
39218;SDS011;24934;52.752;6.964;2023-02-28T06:51:38;15.93;;;14.23;;
39218;SDS011;24934;52.752;6.964;2023-02-28T06:54:06;19.13;;;14.30;;
39218;SDS011;24934;52.752;6.964;2023-02-28T06:56:34;16.63;;;14.20;;
39218;SDS011;24934;52.752;6.964;2023-02-28T06:59:00;16.47;;;13.93;;
39218;SDS011;24934;52.752;6.964;2023-02-28T07:01:26;16.60;;;14.87;;
39218;SDS011;24934;52.752;6.964;2023-02-28T07:03:53;21.87;;;15.50;;
39218;SDS011;24934;52.752;6.964;2023-02-28T07:06:20;17.30;;;15.03;;
39218;SDS011;24934;52.752;6.964;2023-02-28T07:08:47;18.33;;;15.83;;
39218;SDS011;24934;52.752;6.964;2023-02-28T07:11:13;21.50;;;16.00;;
39218;SDS011;24934;52.752;6.964;2023-02-28T07:13:39;19.50;;;16.40;;
39218;SDS011;24934;52.752;6.964;2023-02-28T07:16:06;18.90;;;15.80;;
39218;SDS011;24934;52.752;6.964;2023-02-28T07:18:34;19.70;;;15.90;;
39218;SDS011;24934;52.752;6.964;2023-02-28T07:21:01;19.40;;;16.27;;
39218;SDS011;24934;52.752;6.964;2023-02-28T07:23:28;24.13;;;16.77;;
39218;SDS011;24934;52.752;6.964;2023-02-28T07:25:54;20.93;;;15.97;;
39218;SDS011;24934;52.752;6.964;2023-02-28T07:28:19;18.83;;;16.50;;
39218;SDS011;24934;52.752;6.964;2023-02-28T07:30:47;21.47;;;16.07;;
39218;SDS011;24934;52.752;6.964;2023-02-28T07:33:13;23.67;;;15.30;;
39218;SDS011;24934;52.752;6.964;2023-02-28T07:35:39;18.63;;;15.60;;
39218;SDS011;24934;52.752;6.964;2023-02-28T07:38:05;20.53;;;15.30;;
39218;SDS011;24934;52.752;6.964;2023-02-28T07:40:32;22.67;;;16.03;;
39218;SDS011;24934;52.752;6.964;2023-02-28T07:42:59;21.43;;;15.37;;
39218;SDS011;24934;52.752;6.964;2023-02-28T07:45:28;21.83;;;14.73;;
39218;SDS011;24934;52.752;6.964;2023-02-28T07:47:54;18.73;;;14.10;;
39218;SDS011;24934;52.752;6.964;2023-02-28T07:50:20;26.77;;;15.20;;
39218;SDS011;24934;52.752;6.964;2023-02-28T07:52:46;21.93;;;16.93;;
39218;SDS011;24934;52.752;6.964;2023-02-28T07:55:12;20.40;;;15.57;;
39218;SDS011;24934;52.752;6.964;2023-02-28T07:57:39;16.97;;;15.23;;
39218;SDS011;24934;52.752;6.964;2023-02-28T08:00:07;20.63;;;17.43;;
39218;SDS011;24934;52.752;6.964;2023-02-28T08:02:35;21.67;;;17.37;;
39218;SDS011;24934;52.752;6.964;2023-02-28T08:05:01;16.90;;;15.17;;
39218;SDS011;24934;52.752;6.964;2023-02-28T08:07:27;16.63;;;15.00;;
39218;SDS011;24934;52.752;6.964;2023-02-28T08:09:52;18.20;;;15.20;;
39218;SDS011;24934;52.752;6.964;2023-02-28T08:12:18;18.00;;;15.03;;
39218;SDS011;24934;52.752;6.964;2023-02-28T08:14:43;19.00;;;15.00;;
39218;SDS011;24934;52.752;6.964;2023-02-28T08:17:10;19.83;;;14.73;;
39218;SDS011;24934;52.752;6.964;2023-02-28T08:19:36;16.60;;;14.60;;
39218;SDS011;24934;52.752;6.964;2023-02-28T08:22:01;17.90;;;14.27;;
39218;SDS011;24934;52.752;6.964;2023-02-28T08:24:27;17.03;;;14.90;;
39218;SDS011;24934;52.752;6.964;2023-02-28T08:26:53;15.77;;;14.17;;
39218;SDS011;24934;52.752;6.964;2023-02-28T08:29:19;15.60;;;13.33;;
39218;SDS011;24934;52.752;6.964;2023-02-28T08:31:45;20.67;;;15.00;;
39218;SDS011;24934;52.752;6.964;2023-02-28T08:34:14;16.00;;;14.13;;
39218;SDS011;24934;52.752;6.964;2023-02-28T08:36:41;15.07;;;13.30;;
39218;SDS011;24934;52.752;6.964;2023-02-28T08:39:09;15.00;;;13.50;;
39218;SDS011;24934;52.752;6.964;2023-02-28T08:41:35;14.20;;;12.90;;
39218;SDS011;24934;52.752;6.964;2023-02-28T08:44:00;14.97;;;13.40;;
39218;SDS011;24934;52.752;6.964;2023-02-28T08:46:26;15.17;;;13.60;;
39218;SDS011;24934;52.752;6.964;2023-02-28T08:48:52;14.57;;;13.23;;
39218;SDS011;24934;52.752;6.964;2023-02-28T08:51:19;17.47;;;13.27;;
39218;SDS011;24934;52.752;6.964;2023-02-28T08:53:51;14.80;;;13.30;;
39218;SDS011;24934;52.752;6.964;2023-02-28T08:56:18;17.33;;;13.33;;
39218;SDS011;24934;52.752;6.964;2023-02-28T08:58:45;14.33;;;12.97;;
39218;SDS011;24934;52.752;6.964;2023-02-28T09:01:13;14.02;;;12.70;;
39218;SDS011;24934;52.752;6.964;2023-02-28T09:03:41;13.00;;;11.70;;
39218;SDS011;24934;52.752;6.964;2023-02-28T09:06:07;11.00;;;10.07;;
39218;SDS011;24934;52.752;6.964;2023-02-28T09:08:36;12.85;;;11.75;;
39218;SDS011;24934;52.752;6.964;2023-02-28T09:11:02;12.23;;;11.32;;
39218;SDS011;24934;52.752;6.964;2023-02-28T09:13:28;12.43;;;11.40;;
39218;SDS011;24934;52.752;6.964;2023-02-28T09:15:56;13.17;;;12.07;;
39218;SDS011;24934;52.752;6.964;2023-02-28T09:18:26;13.07;;;11.93;;
39218;SDS011;24934;52.752;6.964;2023-02-28T09:20:52;13.20;;;12.10;;
39218;SDS011;24934;52.752;6.964;2023-02-28T09:23:18;12.00;;;11.00;;
39218;SDS011;24934;52.752;6.964;2023-02-28T09:25:45;12.90;;;11.80;;
39218;SDS011;24934;52.752;6.964;2023-02-28T09:28:15;14.10;;;12.90;;
39218;SDS011;24934;52.752;6.964;2023-02-28T09:30:41;13.57;;;12.17;;
39218;SDS011;24934;52.752;6.964;2023-02-28T09:33:08;13.10;;;12.00;;
39218;SDS011;24934;52.752;6.964;2023-02-28T09:35:34;13.30;;;12.30;;
39218;SDS011;24934;52.752;6.964;2023-02-28T09:38:02;12.50;;;11.40;;
39218;SDS011;24934;52.752;6.964;2023-02-28T09:40:28;14.13;;;12.80;;
39218;SDS011;24934;52.752;6.964;2023-02-28T09:43:00;13.07;;;11.97;;
39218;SDS011;24934;52.752;6.964;2023-02-28T09:45:28;13.80;;;12.70;;
39218;SDS011;24934;52.752;6.964;2023-02-28T09:48:20;13.10;;;12.10;;
39218;SDS011;24934;52.752;6.964;2023-02-28T09:50:51;12.67;;;11.70;;
39218;SDS011;24934;52.752;6.964;2023-02-28T09:55:48;12.50;;;11.40;;
39218;SDS011;24934;52.752;6.964;2023-02-28T09:58:24;13.60;;;12.32;;
39218;SDS011;24934;52.752;6.964;2023-02-28T10:01:00;12.95;;;11.85;;
39218;SDS011;24934;52.752;6.964;2023-02-28T10:03:36;12.35;;;11.45;;
39218;SDS011;24934;52.752;6.964;2023-02-28T10:06:08;12.18;;;11.27;;
39218;SDS011;24934;52.752;6.964;2023-02-28T10:09:01;12.07;;;11.18;;
39218;SDS011;24934;52.752;6.964;2023-02-28T10:11:29;12.48;;;11.27;;
39218;SDS011;24934;52.752;6.964;2023-02-28T10:14:02;13.65;;;12.60;;
39218;SDS011;24934;52.752;6.964;2023-02-28T10:16:32;12.02;;;11.10;;
39218;SDS011;24934;52.752;6.964;2023-02-28T10:19:13;12.68;;;11.77;;
39218;SDS011;24934;52.752;6.964;2023-02-28T10:21:46;12.88;;;11.70;;
39218;SDS011;24934;52.752;6.964;2023-02-28T10:24:20;12.50;;;11.60;;
39218;SDS011;24934;52.752;6.964;2023-02-28T10:26:56;12.88;;;11.93;;
39218;SDS011;24934;52.752;6.964;2023-02-28T10:29:27;12.32;;;11.20;;
39218;SDS011;24934;52.752;6.964;2023-02-28T10:32:01;11.75;;;10.95;;
39218;SDS011;24934;52.752;6.964;2023-02-28T10:34:28;11.80;;;11.00;;
39218;SDS011;24934;52.752;6.964;2023-02-28T10:36:54;12.52;;;11.52;;
39218;SDS011;24934;52.752;6.964;2023-02-28T10:39:41;12.63;;;11.43;;
39218;SDS011;24934;52.752;6.964;2023-02-28T10:44:45;11.98;;;11.13;;
39218;SDS011;24934;52.752;6.964;2023-02-28T10:47:14;12.32;;;11.27;;
39218;SDS011;24934;52.752;6.964;2023-02-28T10:49:46;12.40;;;11.50;;
39218;SDS011;24934;52.752;6.964;2023-02-28T10:52:14;15.73;;;14.43;;
39218;SDS011;24934;52.752;6.964;2023-02-28T10:58:04;13.23;;;12.30;;
39218;SDS011;24934;52.752;6.964;2023-02-28T11:00:50;14.00;;;12.90;;
39218;SDS011;24934;52.752;6.964;2023-02-28T11:03:38;12.82;;;11.93;;
39218;SDS011;24934;52.752;6.964;2023-02-28T11:06:05;13.05;;;11.98;;
39218;SDS011;24934;52.752;6.964;2023-02-28T11:08:32;13.05;;;11.95;;
39218;SDS011;24934;52.752;6.964;2023-02-28T11:11:00;13.52;;;12.43;;
39218;SDS011;24934;52.752;6.964;2023-02-28T11:13:34;13.30;;;12.20;;
39218;SDS011;24934;52.752;6.964;2023-02-28T11:16:04;13.35;;;12.45;;
39218;SDS011;24934;52.752;6.964;2023-02-28T11:18:48;13.80;;;12.70;;
39218;SDS011;24934;52.752;6.964;2023-02-28T11:21:29;14.05;;;12.85;;
39218;SDS011;24934;52.752;6.964;2023-02-28T11:24:06;13.32;;;12.43;;
39218;SDS011;24934;52.752;6.964;2023-02-28T11:26:47;12.88;;;11.88;;
39218;SDS011;24934;52.752;6.964;2023-02-28T11:29:21;13.70;;;12.70;;
39218;SDS011;24934;52.752;6.964;2023-02-28T11:34:29;13.00;;;12.00;;
39218;SDS011;24934;52.752;6.964;2023-02-28T11:36:55;13.23;;;12.10;;
39218;SDS011;24934;52.752;6.964;2023-02-28T11:39:22;13.53;;;12.43;;
39218;SDS011;24934;52.752;6.964;2023-02-28T11:47:24;13.50;;;12.43;;
39218;SDS011;24934;52.752;6.964;2023-02-28T12:02:59;14.05;;;12.75;;
39218;SDS011;24934;52.752;6.964;2023-02-28T12:05:44;13.73;;;12.67;;
39218;SDS011;24934;52.752;6.964;2023-02-28T12:13:57;14.27;;;13.10;;
39218;SDS011;24934;52.752;6.964;2023-02-28T12:16:43;14.55;;;13.45;;
39218;SDS011;24934;52.752;6.964;2023-02-28T12:19:27;15.00;;;13.80;;
39218;SDS011;24934;52.752;6.964;2023-02-28T12:25:13;15.25;;;13.95;;
39218;SDS011;24934;52.752;6.964;2023-02-28T12:27:56;14.20;;;13.13;;
39218;SDS011;24934;52.752;6.964;2023-02-28T12:30:27;14.35;;;13.32;;
39218;SDS011;24934;52.752;6.964;2023-02-28T12:32:58;14.20;;;13.10;;
39218;SDS011;24934;52.752;6.964;2023-02-28T12:35:58;14.57;;;13.48;;
39218;SDS011;24934;52.752;6.964;2023-02-28T12:38:27;14.17;;;13.10;;
39218;SDS011;24934;52.752;6.964;2023-02-28T12:41:03;14.63;;;13.43;;
39218;SDS011;24934;52.752;6.964;2023-02-28T12:43:33;14.40;;;13.30;;
39218;SDS011;24934;52.752;6.964;2023-02-28T12:46:12;15.60;;;14.10;;
39218;SDS011;24934;52.752;6.964;2023-02-28T12:48:47;15.07;;;13.87;;
39218;SDS011;24934;52.752;6.964;2023-02-28T12:51:17;14.37;;;13.27;;
39218;SDS011;24934;52.752;6.964;2023-02-28T12:59:08;13.40;;;12.27;;
39218;SDS011;24934;52.752;6.964;2023-02-28T13:01:42;13.30;;;12.30;;
39218;SDS011;24934;52.752;6.964;2023-02-28T13:07:37;12.90;;;11.90;;
39218;SDS011;24934;52.752;6.964;2023-02-28T13:10:09;13.73;;;12.73;;
39218;SDS011;24934;52.752;6.964;2023-02-28T13:12:35;13.60;;;12.60;;
39218;SDS011;24934;52.752;6.964;2023-02-28T13:15:34;13.63;;;12.33;;
39218;SDS011;24934;52.752;6.964;2023-02-28T13:17:57;13.47;;;12.40;;
39218;SDS011;24934;52.752;6.964;2023-02-28T13:20:33;13.53;;;12.53;;
39218;SDS011;24934;52.752;6.964;2023-02-28T13:23:01;13.67;;;12.47;;
39218;SDS011;24934;52.752;6.964;2023-02-28T13:27:59;14.10;;;13.00;;
39218;SDS011;24934;52.752;6.964;2023-02-28T13:35:48;14.10;;;13.10;;
39218;SDS011;24934;52.752;6.964;2023-02-28T13:46:25;14.23;;;13.17;;
39218;SDS011;24934;52.752;6.964;2023-02-28T13:48:51;14.73;;;13.60;;
39218;SDS011;24934;52.752;6.964;2023-02-28T13:51:26;14.07;;;12.87;;
39218;SDS011;24934;52.752;6.964;2023-02-28T13:54:15;14.60;;;13.50;;
39218;SDS011;24934;52.752;6.964;2023-02-28T13:59:32;14.67;;;13.57;;
39218;SDS011;24934;52.752;6.964;2023-02-28T14:02:09;15.47;;;14.27;;
39218;SDS011;24934;52.752;6.964;2023-02-28T14:04:57;15.33;;;14.13;;
39218;SDS011;24934;52.752;6.964;2023-02-28T14:07:27;15.23;;;14.13;;
39218;SDS011;24934;52.752;6.964;2023-02-28T14:10:03;15.50;;;14.27;;
39218;SDS011;24934;52.752;6.964;2023-02-28T14:12:52;15.03;;;13.93;;
39218;SDS011;24934;52.752;6.964;2023-02-28T14:18:14;15.20;;;14.00;;
39218;SDS011;24934;52.752;6.964;2023-02-28T14:20:47;15.30;;;14.20;;
39218;SDS011;24934;52.752;6.964;2023-02-28T14:26:35;14.80;;;13.40;;
39218;SDS011;24934;52.752;6.964;2023-02-28T14:32:02;14.67;;;13.50;;
39218;SDS011;24934;52.752;6.964;2023-02-28T14:34:51;15.02;;;13.85;;
39218;SDS011;24934;52.752;6.964;2023-02-28T14:37:28;15.40;;;14.13;;
39218;SDS011;24934;52.752;6.964;2023-02-28T14:39:57;13.93;;;12.93;;
39218;SDS011;24934;52.752;6.964;2023-02-28T14:42:34;13.80;;;12.70;;
39218;SDS011;24934;52.752;6.964;2023-02-28T14:45:02;14.37;;;13.20;;
39218;SDS011;24934;52.752;6.964;2023-02-28T14:47:32;13.43;;;12.43;;
39218;SDS011;24934;52.752;6.964;2023-02-28T14:50:00;13.43;;;12.43;;
39218;SDS011;24934;52.752;6.964;2023-02-28T14:52:29;13.57;;;12.47;;
39218;SDS011;24934;52.752;6.964;2023-02-28T14:54:58;14.10;;;13.00;;
39218;SDS011;24934;52.752;6.964;2023-02-28T14:57:26;12.97;;;11.87;;
39218;SDS011;24934;52.752;6.964;2023-02-28T15:00:37;12.73;;;11.73;;
39218;SDS011;24934;52.752;6.964;2023-02-28T15:02:47;12.20;;;11.30;;
39218;SDS011;24934;52.752;6.964;2023-02-28T15:07:38;12.47;;;11.47;;
39218;SDS011;24934;52.752;6.964;2023-02-28T15:10:23;11.80;;;10.90;;
39218;SDS011;24934;52.752;6.964;2023-02-28T15:13:00;12.00;;;11.00;;
39218;SDS011;24934;52.752;6.964;2023-02-28T15:21:21;11.97;;;10.97;;
39218;SDS011;24934;52.752;6.964;2023-02-28T15:23:57;11.90;;;10.83;;
39218;SDS011;24934;52.752;6.964;2023-02-28T15:26:30;11.57;;;10.67;;
39218;SDS011;24934;52.752;6.964;2023-02-28T15:29:00;11.03;;;10.23;;
39218;SDS011;24934;52.752;6.964;2023-02-28T15:31:41;11.53;;;10.63;;
39218;SDS011;24934;52.752;6.964;2023-02-28T15:34:15;11.47;;;10.30;;
39218;SDS011;24934;52.752;6.964;2023-02-28T15:36:44;10.67;;;9.77;;
39218;SDS011;24934;52.752;6.964;2023-02-28T15:39:23;11.23;;;10.33;;
39218;SDS011;24934;52.752;6.964;2023-02-28T15:41:52;11.37;;;10.47;;
39218;SDS011;24934;52.752;6.964;2023-02-28T15:44:34;11.53;;;10.60;;
39218;SDS011;24934;52.752;6.964;2023-02-28T15:47:07;11.17;;;10.37;;
39218;SDS011;24934;52.752;6.964;2023-02-28T15:49:47;11.20;;;10.23;;
39218;SDS011;24934;52.752;6.964;2023-02-28T15:52:15;10.47;;;9.67;;
39218;SDS011;24934;52.752;6.964;2023-02-28T15:54:51;10.80;;;10.00;;
39218;SDS011;24934;52.752;6.964;2023-02-28T15:57:19;10.80;;;10.00;;
39218;SDS011;24934;52.752;6.964;2023-02-28T15:59:54;10.30;;;9.50;;
39218;SDS011;24934;52.752;6.964;2023-02-28T16:02:32;10.60;;;9.63;;
39218;SDS011;24934;52.752;6.964;2023-02-28T16:05:01;10.60;;;9.60;;
39218;SDS011;24934;52.752;6.964;2023-02-28T16:07:42;10.40;;;9.50;;
39218;SDS011;24934;52.752;6.964;2023-02-28T16:10:09;10.87;;;9.97;;
39218;SDS011;24934;52.752;6.964;2023-02-28T16:12:37;10.70;;;9.77;;
39218;SDS011;24934;52.752;6.964;2023-02-28T16:15:08;10.77;;;9.60;;
39218;SDS011;24934;52.752;6.964;2023-02-28T16:17:45;11.10;;;10.10;;
39218;SDS011;24934;52.752;6.964;2023-02-28T16:20:22;10.30;;;9.50;;
39218;SDS011;24934;52.752;6.964;2023-02-28T16:22:50;10.07;;;9.27;;
39218;SDS011;24934;52.752;6.964;2023-02-28T16:25:17;9.97;;;9.20;;
39218;SDS011;24934;52.752;6.964;2023-02-28T16:27:45;10.57;;;9.77;;
39218;SDS011;24934;52.752;6.964;2023-02-28T16:30:18;10.03;;;9.23;;